createdAt,value
2017-05-17T00:00:07.923Z,74.49
2017-05-17T00:01:08.513Z,74.41
2017-05-17T00:02:08.091Z,74.82
2017-05-17T00:03:07.653Z,75.26
2017-05-17T00:04:08.311Z,75.16
2017-05-17T00:05:07.922Z,75.24
2017-05-17T00:06:08.456Z,75.38
2017-05-17T00:07:07.916Z,75.28
2017-05-17T00:08:08.156Z,75.40
2017-05-17T00:09:07.747Z,75.44
2017-05-17T00:10:08.362Z,75.20
2017-05-17T00:11:08.175Z,75.28
2017-05-17T00:12:07.767Z,74.51
2017-05-17T00:13:08.386Z,74.26
2017-05-17T00:14:08.016Z,74.29
2017-05-17T00:15:07.686Z,74.00
2017-05-17T00:16:26.357Z,73.80
2017-05-17T00:17:08.142Z,73.92
2017-05-17T00:18:07.630Z,74.29
2017-05-17T00:19:08.228Z,73.87
2017-05-17T00:20:07.800Z,74.46
2017-05-17T00:21:08.384Z,74.45
2017-05-17T00:22:07.968Z,75.54
2017-05-17T00:23:07.629Z,75.11
2017-05-17T00:24:08.153Z,75.19
2017-05-17T00:25:07.893Z,75.10
2017-05-17T00:26:08.439Z,74.95
2017-05-17T00:27:08.138Z,74.68
2017-05-17T00:28:07.715Z,74.90
2017-05-17T00:29:08.588Z,74.88
2017-05-17T00:30:08.133Z,75.38
2017-05-17T00:31:07.787Z,75.13
2017-05-17T00:32:08.424Z,74.52
2017-05-17T00:33:08.022Z,74.99
2017-05-17T00:34:07.587Z,75.01
2017-05-17T00:35:08.188Z,75.01
2017-05-17T00:36:07.746Z,75.40
2017-05-17T00:37:08.339Z,75.49
2017-05-17T00:38:07.867Z,75.57
2017-05-17T00:39:08.485Z,75.56
2017-05-17T00:40:08.055Z,75.40
2017-05-17T00:41:07.827Z,75.41
2017-05-17T00:42:08.465Z,75.10
2017-05-17T00:43:08.027Z,74.93
2017-05-17T00:44:07.717Z,74.75
2017-05-17T00:45:08.295Z,74.64
2017-05-17T00:46:07.765Z,74.24
2017-05-17T00:47:08.346Z,74.27
2017-05-17T00:48:07.899Z,74.73
2017-05-17T00:49:08.815Z,75.29
2017-05-17T00:50:08.435Z,76.25
2017-05-17T00:51:08.208Z,75.68
2017-05-17T00:52:07.791Z,75.63
2017-05-17T00:53:08.227Z,75.38
2017-05-17T00:54:07.820Z,75.50
2017-05-17T00:55:08.592Z,75.94
2017-05-17T00:56:08.218Z,76.33
2017-05-17T00:57:07.889Z,75.87
2017-05-17T00:58:08.450Z,75.87
2017-05-17T00:59:07.979Z,76.30
2017-05-17T01:00:07.539Z,75.82
2017-05-17T01:01:08.162Z,75.76
2017-05-17T01:02:07.627Z,75.84
2017-05-17T01:03:08.123Z,75.76
2017-05-17T01:04:07.655Z,75.23
2017-05-17T01:05:08.295Z,75.49
2017-05-17T01:06:08.231Z,75.10
2017-05-17T01:07:07.860Z,74.94
2017-05-17T01:08:08.311Z,75.14
2017-05-17T01:09:08.223Z,75.51
2017-05-17T01:10:08.159Z,75.94
2017-05-17T01:11:07.773Z,75.96
2017-05-17T01:12:08.278Z,75.82
2017-05-17T01:13:07.834Z,75.79
2017-05-17T01:14:08.495Z,76.35
2017-05-17T01:15:46.724Z,76.10
2017-05-17T01:16:08.377Z,76.29
2017-05-17T01:17:08.128Z,75.99
2017-05-17T01:18:07.663Z,75.93
2017-05-17T01:19:32.077Z,76.11
2017-05-17T01:20:07.669Z,75.43
2017-05-17T01:21:08.295Z,75.65
2017-05-17T01:22:08.039Z,75.09
2017-05-17T01:23:07.730Z,75.22
2017-05-17T01:24:08.348Z,74.76
2017-05-17T01:25:07.995Z,75.09
2017-05-17T01:26:07.676Z,75.31
2017-05-17T01:27:08.301Z,75.02
2017-05-17T01:28:07.875Z,75.64
2017-05-17T01:29:08.514Z,75.52
2017-05-17T01:30:08.323Z,75.67
2017-05-17T01:31:07.899Z,75.73
2017-05-17T01:32:08.643Z,76.00
2017-05-17T01:33:08.274Z,76.16
2017-05-17T01:34:07.906Z,76.42
2017-05-17T01:35:08.530Z,76.09
2017-05-17T01:36:08.107Z,76.49
2017-05-17T01:37:07.665Z,76.34
2017-05-17T01:38:09.286Z,76.14
2017-05-17T01:39:07.870Z,76.09
2017-05-17T01:40:08.474Z,75.63
2017-05-17T01:41:08.149Z,75.76
2017-05-17T01:42:07.684Z,75.12
2017-05-17T01:43:08.322Z,75.01
2017-05-17T01:44:07.872Z,75.37
2017-05-17T01:45:08.471Z,74.92
2017-05-17T01:46:07.950Z,75.62
2017-05-17T01:47:07.562Z,75.45
2017-05-17T01:48:08.655Z,74.91
2017-05-17T01:49:08.280Z,74.82
2017-05-17T01:50:07.811Z,74.30
2017-05-17T01:51:08.441Z,74.25
2017-05-17T01:52:07.978Z,74.33
2017-05-17T01:53:07.542Z,74.05
2017-05-17T01:54:08.123Z,74.06
2017-05-17T01:55:07.771Z,73.57
2017-05-17T01:56:08.566Z,73.74
2017-05-17T01:57:08.176Z,73.82
2017-05-17T01:58:07.768Z,74.34
2017-05-17T01:59:08.386Z,74.66
2017-05-17T02:00:07.977Z,74.44
2017-05-17T02:01:07.696Z,75.23
2017-05-17T02:02:08.271Z,75.50
2017-05-17T02:03:07.811Z,75.59
2017-05-17T02:04:08.467Z,75.89
2017-05-17T02:05:08.085Z,76.01
2017-05-17T02:06:07.566Z,75.97
2017-05-17T02:07:07.994Z,76.15
2017-05-17T02:08:08.166Z,76.40
2017-05-17T02:09:07.706Z,76.42
2017-05-17T02:10:08.516Z,76.41
2017-05-17T02:11:08.056Z,76.12
2017-05-17T02:12:07.574Z,75.63
2017-05-17T02:13:08.093Z,75.39
2017-05-17T02:14:07.635Z,75.61
2017-05-17T02:15:08.263Z,76.29
2017-05-17T02:16:07.819Z,76.04
2017-05-17T02:17:08.593Z,75.90
2017-05-17T02:18:08.106Z,76.20
2017-05-17T02:19:07.595Z,76.70
2017-05-17T02:20:08.245Z,76.24
2017-05-17T02:21:07.720Z,75.77
2017-05-17T02:22:08.284Z,75.38
2017-05-17T02:23:08.020Z,74.89
2017-05-17T02:24:07.515Z,75.02
2017-05-17T02:25:08.089Z,74.91
2017-05-17T02:26:07.685Z,76.15
2017-05-17T02:27:08.413Z,76.71
2017-05-17T02:28:08.040Z,76.17
2017-05-17T02:29:07.609Z,76.23
2017-05-17T02:30:08.164Z,75.93
2017-05-17T02:31:07.790Z,75.90
2017-05-17T02:32:08.339Z,76.18
2017-05-17T02:33:07.878Z,76.96
2017-05-17T02:34:08.457Z,77.04
2017-05-17T02:35:08.018Z,76.62
2017-05-17T02:36:07.840Z,76.09
2017-05-17T02:37:08.699Z,75.13
2017-05-17T02:38:08.257Z,75.44
2017-05-17T02:39:07.853Z,75.90
2017-05-17T02:40:08.469Z,75.64
2017-05-17T02:41:08.163Z,75.89
2017-05-17T02:42:07.668Z,75.80
2017-05-17T02:43:08.597Z,75.89
2017-05-17T02:44:08.266Z,75.95
2017-05-17T02:45:07.956Z,76.18
2017-05-17T02:46:07.518Z,76.80
2017-05-17T02:47:08.143Z,77.37
2017-05-17T02:48:07.676Z,77.27
2017-05-17T02:49:08.254Z,77.51
2017-05-17T02:50:07.875Z,77.22
2017-05-17T02:51:08.464Z,76.52
2017-05-17T02:52:08.120Z,75.57
2017-05-17T02:53:07.703Z,75.43
2017-05-17T02:54:08.265Z,75.46
2017-05-17T02:55:08.582Z,74.90
2017-05-17T02:56:08.243Z,74.28
2017-05-17T02:57:08.005Z,74.40
2017-05-17T02:58:07.579Z,74.66
2017-05-17T02:59:08.210Z,75.11
2017-05-17T03:00:07.869Z,75.60
2017-05-17T03:01:08.411Z,75.45
2017-05-17T03:02:07.981Z,75.90
2017-05-17T03:03:07.820Z,75.63
2017-05-17T03:04:08.427Z,75.79
2017-05-17T03:05:08.024Z,75.95
2017-05-17T03:06:07.566Z,75.20
2017-05-17T03:07:08.134Z,74.58
2017-05-17T03:08:07.775Z,74.70
2017-05-17T03:09:08.374Z,74.21
2017-05-17T03:10:07.903Z,73.89
2017-05-17T03:11:08.490Z,73.86
2017-05-17T03:12:08.004Z,74.18
2017-05-17T03:13:07.602Z,74.47
2017-05-17T03:14:08.191Z,75.00
2017-05-17T03:15:07.665Z,75.37
2017-05-17T03:16:08.171Z,75.78
2017-05-17T03:17:08.031Z,76.17
2017-05-17T03:18:07.517Z,76.20
2017-05-17T03:19:08.113Z,76.23
2017-05-17T03:20:07.700Z,75.99
2017-05-17T03:21:08.349Z,75.85
2017-05-17T03:22:08.191Z,75.63
2017-05-17T03:23:07.863Z,75.87
2017-05-17T03:24:08.371Z,75.50
2017-05-17T03:25:08.006Z,75.79
2017-05-17T03:26:07.730Z,75.64
2017-05-17T03:27:08.332Z,75.83
2017-05-17T03:28:08.190Z,76.62
2017-05-17T03:29:08.145Z,77.25
2017-05-17T03:30:07.737Z,76.87
2017-05-17T03:31:08.490Z,76.44
2017-05-17T03:32:08.090Z,76.63
2017-05-17T03:33:07.722Z,76.11
2017-05-17T03:34:08.325Z,76.14
2017-05-17T03:35:08.031Z,76.43
2017-05-17T03:36:07.764Z,75.95
2017-05-17T03:37:08.597Z,76.50
2017-05-17T03:38:08.173Z,76.46
2017-05-17T03:39:07.695Z,76.37
2017-05-17T03:40:08.269Z,76.35
2017-05-17T03:41:07.779Z,76.40
2017-05-17T03:42:08.726Z,76.43
2017-05-17T03:43:08.370Z,75.97
2017-05-17T03:44:07.995Z,76.01
2017-05-17T03:45:07.542Z,75.54
2017-05-17T03:46:08.154Z,76.38
2017-05-17T03:47:07.613Z,77.02
2017-05-17T03:48:08.221Z,76.89
2017-05-17T03:49:08.111Z,76.62
2017-05-17T03:50:07.694Z,76.33
2017-05-17T03:51:08.232Z,76.79
2017-05-17T03:52:07.858Z,76.70
2017-05-17T03:53:08.468Z,76.46
2017-05-17T03:54:08.073Z,76.57
2017-05-17T03:55:07.668Z,76.23
2017-05-17T03:56:08.525Z,75.91
2017-05-17T03:57:08.136Z,75.84
2017-05-17T03:58:07.715Z,75.65
2017-05-17T03:59:08.460Z,75.66
2017-05-17T04:00:08.098Z,75.37
2017-05-17T04:01:07.658Z,75.34
2017-05-17T04:02:08.244Z,75.28
2017-05-17T04:03:07.729Z,74.57
2017-05-17T04:04:08.435Z,74.29
2017-05-17T04:05:08.050Z,74.69
2017-05-17T04:06:07.637Z,75.58
2017-05-17T04:07:08.048Z,75.87
2017-05-17T04:08:08.118Z,76.05
2017-05-17T04:09:07.644Z,76.30
2017-05-17T04:10:08.278Z,76.28
2017-05-17T04:11:07.796Z,76.36
2017-05-17T04:12:08.415Z,76.49
2017-05-17T04:13:07.999Z,76.72
2017-05-17T04:14:07.809Z,76.51
2017-05-17T04:15:08.449Z,76.13
2017-05-17T04:16:08.005Z,76.37
2017-05-17T04:17:07.585Z,76.65
2017-05-17T04:18:08.438Z,76.48
2017-05-17T04:19:08.034Z,76.90
2017-05-17T04:20:07.628Z,77.09
2017-05-17T04:21:08.244Z,77.03
2017-05-17T04:22:07.825Z,76.69
2017-05-17T04:23:08.512Z,77.52
2017-05-17T04:24:08.099Z,77.73
2017-05-17T04:25:10.611Z,77.93
2017-05-17T04:26:08.523Z,78.23
2017-05-17T04:27:08.108Z,78.37
2017-05-17T04:28:08.170Z,78.06
2017-05-17T04:29:07.811Z,77.81
2017-05-17T04:30:08.680Z,78.08
2017-05-17T04:31:08.340Z,78.23
2017-05-17T04:32:07.933Z,78.46
2017-05-17T04:33:07.535Z,78.59
2017-05-17T04:34:08.104Z,77.75
2017-05-17T04:35:07.736Z,78.52
2017-05-17T04:36:08.415Z,78.56
2017-05-17T04:37:07.990Z,78.13
2017-05-17T04:38:07.631Z,78.44
2017-05-17T04:39:08.217Z,78.68
2017-05-17T04:40:07.773Z,78.68
2017-05-17T04:41:08.699Z,77.99
2017-05-17T04:42:08.312Z,77.49
2017-05-17T04:43:07.964Z,77.92
2017-05-17T04:44:07.585Z,77.93
2017-05-17T04:45:08.153Z,77.57
2017-05-17T04:46:07.782Z,77.40
2017-05-17T04:47:08.400Z,77.40
2017-05-17T04:48:08.013Z,77.49
2017-05-17T04:49:07.529Z,77.35
2017-05-17T04:50:08.091Z,77.38
2017-05-17T04:51:07.643Z,77.29
2017-05-17T04:52:08.251Z,77.36
2017-05-17T04:53:08.047Z,77.41
2017-05-17T04:54:07.626Z,77.42
2017-05-17T04:55:08.421Z,77.21
2017-05-17T04:56:07.978Z,77.66
2017-05-17T04:57:07.492Z,77.01
2017-05-17T04:58:08.010Z,77.13
2017-05-17T04:59:07.747Z,78.24
2017-05-17T05:00:08.457Z,77.08
2017-05-17T05:01:08.031Z,77.34
2017-05-17T05:02:07.621Z,77.69
2017-05-17T05:03:08.110Z,77.78
2017-05-17T05:04:07.725Z,78.09
2017-05-17T05:05:08.315Z,78.69
2017-05-17T05:06:07.960Z,78.49
2017-05-17T05:07:08.008Z,78.53
2017-05-17T05:08:07.625Z,78.46
2017-05-17T05:09:08.284Z,78.92
2017-05-17T05:10:07.946Z,77.90
2017-05-17T05:11:07.477Z,76.83
2017-05-17T05:12:08.102Z,77.63
2017-05-17T05:13:07.957Z,78.86
2017-05-17T05:14:07.887Z,79.01
2017-05-17T05:15:08.466Z,77.48
2017-05-17T05:16:08.157Z,78.55
2017-05-17T05:17:08.250Z,78.24
2017-05-17T05:18:07.871Z,77.19
2017-05-17T05:19:08.455Z,77.28
2017-05-17T05:20:08.010Z,77.09
2017-05-17T05:21:07.582Z,77.16
2017-05-17T05:22:08.226Z,77.51
2017-05-17T05:23:07.747Z,77.22
2017-05-17T05:24:08.292Z,77.67
2017-05-17T05:25:07.952Z,76.74
2017-05-17T05:26:07.444Z,77.04
2017-05-17T05:27:08.102Z,76.96
2017-05-17T05:28:07.593Z,76.85
2017-05-17T05:29:08.266Z,76.50
2017-05-17T05:30:07.745Z,77.34
2017-05-17T05:31:08.391Z,76.84
2017-05-17T05:32:08.046Z,76.54
2017-05-17T05:33:07.611Z,76.85
2017-05-17T05:34:08.094Z,76.49
2017-05-17T05:35:07.611Z,76.44
2017-05-17T05:36:08.156Z,75.83
2017-05-17T05:37:07.757Z,76.43
2017-05-17T05:38:08.314Z,77.02
2017-05-17T05:39:07.920Z,76.33
2017-05-17T05:40:08.455Z,75.93
2017-05-17T05:41:07.880Z,75.62
2017-05-17T05:42:08.551Z,75.06
2017-05-17T05:43:08.127Z,74.61
2017-05-17T05:44:07.750Z,75.84
2017-05-17T05:45:08.316Z,75.01
2017-05-17T05:46:07.889Z,74.62
2017-05-17T05:47:08.553Z,75.34
2017-05-17T05:48:08.061Z,75.42
2017-05-17T05:49:07.754Z,75.12
2017-05-17T05:50:08.342Z,75.10
2017-05-17T05:51:07.957Z,75.21
2017-05-17T05:52:07.528Z,75.90
2017-05-17T05:53:08.125Z,75.47
2017-05-17T05:54:07.690Z,75.32
2017-05-17T05:55:08.326Z,75.04
2017-05-17T05:56:08.113Z,75.08
2017-05-17T05:57:07.661Z,74.92
2017-05-17T05:58:08.308Z,74.57
2017-05-17T05:59:07.942Z,74.72
2017-05-17T06:00:07.534Z,74.42
2017-05-17T06:01:08.087Z,74.45
2017-05-17T06:02:07.891Z,74.33
2017-05-17T06:03:08.489Z,73.74
2017-05-17T06:04:08.110Z,73.58
2017-05-17T06:05:07.626Z,73.91
2017-05-17T06:06:08.199Z,73.36
2017-05-17T06:07:07.690Z,74.42
2017-05-17T06:08:07.849Z,74.47
2017-05-17T06:09:08.483Z,74.25
2017-05-17T06:10:08.074Z,74.05
2017-05-17T06:11:07.749Z,73.78
2017-05-17T06:12:08.325Z,74.11
2017-05-17T06:13:07.850Z,74.77
2017-05-17T06:14:08.538Z,74.14
2017-05-17T06:15:08.119Z,74.26
2017-05-17T06:16:07.704Z,74.44
2017-05-17T06:17:08.344Z,75.37
2017-05-17T06:18:07.934Z,75.06
2017-05-17T06:19:07.534Z,75.01
2017-05-17T06:20:08.115Z,74.57
2017-05-17T06:21:07.727Z,74.00
2017-05-17T06:22:08.308Z,73.73
2017-05-17T06:23:08.207Z,73.87
2017-05-17T06:24:07.877Z,74.14
2017-05-17T06:25:08.603Z,73.72
2017-05-17T06:26:08.261Z,74.01
2017-05-17T06:27:07.874Z,74.39
2017-05-17T06:28:08.459Z,74.58
2017-05-17T06:29:08.010Z,74.39
2017-05-17T06:30:07.637Z,74.59
2017-05-17T06:31:08.591Z,74.63
2017-05-17T06:32:08.166Z,74.27
2017-05-17T06:33:07.699Z,74.48
2017-05-17T06:34:08.269Z,73.70
2017-05-17T06:35:07.761Z,73.39
2017-05-17T06:36:08.322Z,73.51
2017-05-17T06:37:38.116Z,72.71
2017-05-17T06:38:08.073Z,72.91
2017-05-17T06:39:07.719Z,73.12
2017-05-17T06:40:08.307Z,72.76
2017-05-17T06:41:07.898Z,72.89
2017-05-17T06:42:08.561Z,72.75
2017-05-17T06:43:08.147Z,72.59
2017-05-17T06:44:07.715Z,73.03
2017-05-17T06:45:08.282Z,72.84
2017-05-17T06:46:07.894Z,73.28
2017-05-17T06:47:08.705Z,73.48
2017-05-17T06:48:08.322Z,73.46
2017-05-17T06:49:07.889Z,73.41
2017-05-17T06:50:08.606Z,72.58
2017-05-17T06:51:08.199Z,72.98
2017-05-17T06:52:08.007Z,72.77
2017-05-17T06:53:07.548Z,72.80
2017-05-17T06:54:08.117Z,72.98
2017-05-17T06:55:07.744Z,73.32
2017-05-17T06:56:08.316Z,73.60
2017-05-17T06:57:07.833Z,73.58
2017-05-17T06:58:08.395Z,73.42
2017-05-17T06:59:08.134Z,73.46
2017-05-17T07:00:07.664Z,74.07
2017-05-17T07:01:08.237Z,73.10
2017-05-17T07:02:07.743Z,72.93
2017-05-17T07:03:08.356Z,72.53
2017-05-17T07:04:08.292Z,72.98
2017-05-17T07:05:08.086Z,73.18
2017-05-17T07:06:07.877Z,72.96
2017-05-17T07:07:08.523Z,72.68
2017-05-17T07:08:08.063Z,72.70
2017-05-17T07:09:07.787Z,72.93
2017-05-17T07:10:08.394Z,73.12
2017-05-17T07:11:08.063Z,72.88
2017-05-17T07:12:07.714Z,72.20
2017-05-17T07:13:08.283Z,72.37
2017-05-17T07:14:07.904Z,72.26
2017-05-17T07:15:08.433Z,72.49
2017-05-17T07:16:08.080Z,72.06
2017-05-17T07:17:07.781Z,71.65
2017-05-17T07:18:08.426Z,71.46
2017-05-17T07:19:08.046Z,71.30
2017-05-17T07:20:07.615Z,70.70
2017-05-17T07:21:08.466Z,70.46
2017-05-17T07:22:07.992Z,70.28
2017-05-17T07:23:07.514Z,70.24
2017-05-17T07:24:08.207Z,70.65
2017-05-17T07:25:07.910Z,70.63
2017-05-17T07:26:08.524Z,70.45
2017-05-17T07:27:08.315Z,70.60
2017-05-17T07:28:07.915Z,70.84
2017-05-17T07:29:08.527Z,70.11
2017-05-17T07:30:08.104Z,70.02
2017-05-17T07:31:07.702Z,69.43
2017-05-17T07:32:08.265Z,69.79
2017-05-17T07:33:07.886Z,69.41
2017-05-17T07:34:08.551Z,69.15
2017-05-17T07:35:08.124Z,69.08
2017-05-17T07:36:07.717Z,69.38
2017-05-17T07:37:08.316Z,69.60
2017-05-17T07:38:07.906Z,69.53
2017-05-17T07:39:08.622Z,69.07
2017-05-17T07:40:08.216Z,68.86
2017-05-17T07:41:08.008Z,69.16
2017-05-17T07:42:07.527Z,68.75
2017-05-17T07:43:08.148Z,66.60
2017-05-17T07:44:07.796Z,67.23
2017-05-17T07:45:08.357Z,68.08
2017-05-17T07:46:07.866Z,67.73
2017-05-17T07:47:08.502Z,67.45
2017-05-17T07:48:08.170Z,66.26
2017-05-17T07:49:07.730Z,66.29
2017-05-17T07:50:08.429Z,65.87
2017-05-17T07:51:07.962Z,66.65
2017-05-17T07:52:07.584Z,65.17
2017-05-17T07:53:08.207Z,65.83
2017-05-17T07:54:07.785Z,65.19
2017-05-17T07:55:08.549Z,65.63
2017-05-17T07:56:08.519Z,65.91
2017-05-17T07:57:08.119Z,65.87
2017-05-17T07:58:07.678Z,66.07
2017-05-17T07:59:08.233Z,65.89
2017-05-17T08:00:07.775Z,65.38
2017-05-17T08:01:08.353Z,65.03
2017-05-17T08:02:07.918Z,64.90
2017-05-17T08:03:08.440Z,64.95
2017-05-17T08:04:08.059Z,64.95
2017-05-17T08:05:07.582Z,64.89
2017-05-17T08:06:08.303Z,65.88
2017-05-17T08:07:07.812Z,65.82
2017-05-17T08:08:08.388Z,64.93
2017-05-17T08:09:08.234Z,64.34
2017-05-17T08:10:08.126Z,64.06
2017-05-17T08:11:07.810Z,65.40
2017-05-17T08:12:08.460Z,64.85
2017-05-17T08:13:08.032Z,63.86
2017-05-17T08:14:07.755Z,64.65
2017-05-17T08:15:08.301Z,64.25
2017-05-17T08:16:07.775Z,64.08
2017-05-17T08:17:08.552Z,65.40
2017-05-17T08:18:08.151Z,64.01
2017-05-17T08:19:07.701Z,63.78
2017-05-17T08:20:08.289Z,63.29
2017-05-17T08:21:07.805Z,63.10
2017-05-17T08:22:08.335Z,62.63
2017-05-17T08:23:07.914Z,63.03
2017-05-17T08:24:08.471Z,63.19
2017-05-17T08:25:08.171Z,63.70
2017-05-17T08:26:07.870Z,64.68
2017-05-17T08:27:08.442Z,64.53
2017-05-17T08:28:07.991Z,64.31
2017-05-17T08:29:07.482Z,64.69
2017-05-17T08:30:08.261Z,64.55
2017-05-17T08:31:07.876Z,64.00
2017-05-17T08:32:08.501Z,62.67
2017-05-17T08:33:08.083Z,63.64
2017-05-17T08:34:07.698Z,61.49
2017-05-17T08:35:08.241Z,60.01
2017-05-17T08:36:08.358Z,58.46
2017-05-17T08:37:08.164Z,57.80
2017-05-17T08:38:08.001Z,58.86
2017-05-17T08:39:07.741Z,58.77
2017-05-17T08:40:08.323Z,59.67
2017-05-17T08:41:08.004Z,59.40
2017-05-17T08:42:07.588Z,60.22
2017-05-17T08:43:08.177Z,59.23
2017-05-17T08:44:07.692Z,59.40
2017-05-17T08:45:08.264Z,58.44
2017-05-17T08:46:07.880Z,58.22
2017-05-17T08:47:08.448Z,58.41
2017-05-17T08:48:07.953Z,59.29
2017-05-17T08:49:07.560Z,59.25
2017-05-17T08:50:08.110Z,59.59
2017-05-17T08:51:07.900Z,59.20
2017-05-17T08:52:07.579Z,59.82
2017-05-17T08:53:08.410Z,59.26
2017-05-17T08:54:08.012Z,57.39
2017-05-17T08:55:07.642Z,56.51
2017-05-17T08:56:08.369Z,56.63
2017-05-17T08:57:07.950Z,55.48
2017-05-17T08:58:07.520Z,56.07
2017-05-17T08:59:08.265Z,56.53
2017-05-17T09:00:07.888Z,57.47
2017-05-17T09:01:08.469Z,56.71
2017-05-17T09:02:08.333Z,56.60
2017-05-17T09:03:07.910Z,57.39
2017-05-17T09:04:08.535Z,57.86
2017-05-17T09:05:08.408Z,57.85
2017-05-17T09:06:08.280Z,57.65
2017-05-17T09:07:07.939Z,55.38
2017-05-17T09:08:07.542Z,56.50
2017-05-17T09:09:08.079Z,57.46
2017-05-17T09:10:07.618Z,56.64
2017-05-17T09:11:08.226Z,57.56
2017-05-17T09:12:08.055Z,56.03
2017-05-17T09:13:07.830Z,53.99
2017-05-17T09:14:08.450Z,57.66
2017-05-17T09:15:08.014Z,57.19
2017-05-17T09:16:07.610Z,56.74
2017-05-17T09:17:08.318Z,58.38
2017-05-17T09:18:07.824Z,55.49
2017-05-17T09:19:08.397Z,56.31
2017-05-17T09:20:08.010Z,56.39
2017-05-17T09:21:07.641Z,54.35
2017-05-17T09:22:08.250Z,56.51
2017-05-17T09:23:07.738Z,57.28
2017-05-17T09:24:08.326Z,57.27
2017-05-17T09:25:07.954Z,57.54
2017-05-17T09:26:07.552Z,57.78
2017-05-17T09:27:08.400Z,58.09
2017-05-17T09:28:07.971Z,58.24
2017-05-17T09:29:07.484Z,58.67
2017-05-17T09:30:08.297Z,58.07
2017-05-17T09:31:07.904Z,56.66
2017-05-17T09:32:08.544Z,56.65
2017-05-17T09:33:08.047Z,57.44
2017-05-17T09:34:07.623Z,57.78
2017-05-17T09:35:08.221Z,57.69
2017-05-17T09:36:07.800Z,58.35
2017-05-17T09:37:08.349Z,56.77
2017-05-17T09:38:07.938Z,56.71
2017-05-17T09:39:07.550Z,57.75
2017-05-17T09:40:08.154Z,58.56
2017-05-17T09:41:07.768Z,58.30
2017-05-17T09:42:08.274Z,58.33
2017-05-17T09:43:07.840Z,59.11
2017-05-17T09:44:08.508Z,57.84
2017-05-17T09:45:08.083Z,58.69
2017-05-17T09:46:07.624Z,56.98
2017-05-17T09:47:08.139Z,58.28
2017-05-17T09:48:07.940Z,57.06
2017-05-17T09:49:07.689Z,57.66
2017-05-17T09:50:08.358Z,57.90
2017-05-17T09:51:07.828Z,58.93
2017-05-17T09:52:08.346Z,59.40
2017-05-17T09:53:08.027Z,57.85
2017-05-17T09:54:07.538Z,58.27
2017-05-17T09:55:43.762Z,57.65
2017-05-17T09:56:08.235Z,59.01
2017-05-17T09:57:07.770Z,56.63
2017-05-17T09:58:09.107Z,58.43
2017-05-17T09:59:07.770Z,61.87
2017-05-17T10:00:08.397Z,61.26
2017-05-17T10:01:07.855Z,61.24
2017-05-17T10:02:08.193Z,59.21
2017-05-17T10:03:07.972Z,59.77
2017-05-17T10:04:07.576Z,60.43
2017-05-17T10:05:08.095Z,59.26
2017-05-17T10:06:07.553Z,59.37
2017-05-17T10:07:08.306Z,57.94
2017-05-17T10:08:07.810Z,58.55
2017-05-17T10:09:08.468Z,58.14
2017-05-17T10:10:08.086Z,56.84
2017-05-17T10:11:07.658Z,58.08
2017-05-17T10:12:08.238Z,58.19
2017-05-17T10:13:07.760Z,58.59
2017-05-17T10:14:08.338Z,56.90
2017-05-17T10:15:07.946Z,58.98
2017-05-17T10:16:07.521Z,59.07
2017-05-17T10:17:08.342Z,59.71
2017-05-17T10:18:07.931Z,58.10
2017-05-17T10:19:08.576Z,59.76
2017-05-17T10:20:08.227Z,60.26
2017-05-17T10:21:07.762Z,59.13
2017-05-17T10:22:08.404Z,57.07
2017-05-17T10:23:08.160Z,59.87
2017-05-17T10:24:07.716Z,58.26
2017-05-17T10:25:08.469Z,60.14
2017-05-17T10:26:08.165Z,58.79
2017-05-17T10:27:07.703Z,58.31
2017-05-17T10:28:08.300Z,57.96
2017-05-17T10:29:07.858Z,60.54
2017-05-17T10:30:08.547Z,58.27
2017-05-17T10:31:08.118Z,59.65
2017-05-17T10:32:07.736Z,59.57
2017-05-17T10:33:08.286Z,58.90
2017-05-17T10:34:07.862Z,57.87
2017-05-17T10:35:08.419Z,60.72
2017-05-17T10:36:07.996Z,59.31
2017-05-17T10:37:07.771Z,59.71
2017-05-17T10:38:08.457Z,59.30
2017-05-17T10:39:08.056Z,56.81
2017-05-17T10:40:07.636Z,56.76
2017-05-17T10:41:09.337Z,58.31
2017-05-17T10:42:08.972Z,59.19
2017-05-17T10:43:07.576Z,58.91
2017-05-17T10:44:08.245Z,54.57
2017-05-17T10:45:07.826Z,56.65
2017-05-17T10:46:08.475Z,57.05
2017-05-17T10:47:08.006Z,55.89
2017-05-17T10:48:07.515Z,59.23
2017-05-17T10:49:08.198Z,57.01
2017-05-17T10:50:07.843Z,58.27
2017-05-17T10:51:08.484Z,57.30
2017-05-17T10:52:07.970Z,60.00
2017-05-17T10:53:07.421Z,60.42
2017-05-17T10:54:08.037Z,57.13
2017-05-17T10:55:07.720Z,55.77
2017-05-17T10:56:08.383Z,56.00
2017-05-17T10:57:08.007Z,56.26
2017-05-17T10:58:07.491Z,54.62
2017-05-17T10:59:08.374Z,52.90
2017-05-17T11:00:08.132Z,53.80
2017-05-17T11:01:07.748Z,53.77
2017-05-17T11:02:08.366Z,57.12
2017-05-17T11:03:07.954Z,58.60
2017-05-17T11:04:07.533Z,56.28
2017-05-17T11:05:08.177Z,55.29
2017-05-17T11:06:07.978Z,54.38
2017-05-17T11:07:07.436Z,55.33
2017-05-17T11:08:08.021Z,56.26
2017-05-17T11:09:07.597Z,54.16
2017-05-17T11:10:08.202Z,55.79
2017-05-17T11:11:07.777Z,53.66
2017-05-17T11:12:08.372Z,56.09
2017-05-17T11:13:08.019Z,55.75
2017-05-17T11:14:07.673Z,56.68
2017-05-17T11:15:08.248Z,55.67
2017-05-17T11:16:07.885Z,51.56
2017-05-17T11:17:08.773Z,54.38
2017-05-17T11:18:08.422Z,56.10
2017-05-17T11:19:08.043Z,55.87
2017-05-17T11:20:07.727Z,56.01
2017-05-17T11:21:08.538Z,52.90
2017-05-17T11:22:08.035Z,51.43
2017-05-17T11:23:07.601Z,50.33
2017-05-17T11:24:08.206Z,50.66
2017-05-17T11:25:08.009Z,50.47
2017-05-17T11:26:07.659Z,52.14
2017-05-17T11:27:08.272Z,52.24
2017-05-17T11:28:08.094Z,54.88
2017-05-17T11:29:07.533Z,54.21
2017-05-17T11:30:08.030Z,53.12
2017-05-17T11:31:07.567Z,52.65
2017-05-17T11:32:08.134Z,50.55
2017-05-17T11:33:07.725Z,53.12
2017-05-17T11:34:08.283Z,52.22
2017-05-17T11:35:07.881Z,54.75
2017-05-17T11:36:08.509Z,53.96
2017-05-17T11:37:07.997Z,53.88
2017-05-17T11:38:07.554Z,52.58
2017-05-17T11:39:08.063Z,55.23
2017-05-17T11:40:07.604Z,54.74
2017-05-17T11:41:08.227Z,53.48
2017-05-17T11:42:07.797Z,51.85
2017-05-17T11:43:08.449Z,55.35
2017-05-17T11:44:08.032Z,55.47
2017-05-17T11:45:07.643Z,53.88
2017-05-17T11:46:08.249Z,53.85
2017-05-17T11:47:07.796Z,54.16
2017-05-17T11:48:08.617Z,54.05
2017-05-17T11:49:09.169Z,57.12
2017-05-17T11:50:07.707Z,56.94
2017-05-17T11:51:08.461Z,55.07
2017-05-17T11:52:21.302Z,55.26
2017-05-17T11:53:08.045Z,56.01
2017-05-17T11:54:07.909Z,55.87
2017-05-17T11:55:08.563Z,53.94
2017-05-17T11:56:08.218Z,54.98
2017-05-17T11:57:07.916Z,54.89
2017-05-17T11:58:07.794Z,57.43
2017-05-17T11:59:08.374Z,55.21
2017-05-17T12:00:08.039Z,56.27
2017-05-17T12:01:07.607Z,58.50
2017-05-17T12:02:08.323Z,54.91
2017-05-17T12:03:07.928Z,57.00
2017-05-17T12:04:08.626Z,57.24
2017-05-17T12:05:08.115Z,56.78
2017-05-17T12:06:07.607Z,55.18
2017-05-17T12:07:08.256Z,56.56
2017-05-17T12:08:07.840Z,55.53
2017-05-17T12:09:08.420Z,57.49
2017-05-17T12:10:08.145Z,57.09
2017-05-17T12:11:07.757Z,57.37
2017-05-17T12:12:08.431Z,56.27
2017-05-17T12:13:08.004Z,56.25
2017-05-17T12:14:07.797Z,57.02
2017-05-17T12:15:08.384Z,58.12
2017-05-17T12:16:08.025Z,58.64
2017-05-17T12:17:07.681Z,59.21
2017-05-17T12:18:08.285Z,56.56
2017-05-17T12:19:07.879Z,56.74
2017-05-17T12:20:08.502Z,58.75
2017-05-17T12:21:08.087Z,57.18
2017-05-17T12:22:07.586Z,56.73
2017-05-17T12:23:08.157Z,57.44
2017-05-17T12:24:07.740Z,57.11
2017-05-17T12:25:08.363Z,56.64
2017-05-17T12:26:08.014Z,53.89
2017-05-17T12:27:07.520Z,55.53
2017-05-17T12:28:08.131Z,54.47
2017-05-17T12:29:07.667Z,53.88
2017-05-17T12:30:08.158Z,54.35
2017-05-17T12:31:08.056Z,55.65
2017-05-17T12:32:07.561Z,55.85
2017-05-17T12:33:08.074Z,56.05
2017-05-17T12:34:07.675Z,56.64
2017-05-17T12:35:08.313Z,54.78
2017-05-17T12:36:07.846Z,54.65
2017-05-17T12:37:08.751Z,55.69
2017-05-17T12:38:08.353Z,54.31
2017-05-17T12:39:07.944Z,55.42
2017-05-17T12:40:07.580Z,55.67
2017-05-17T12:41:08.578Z,57.06
2017-05-17T12:42:08.066Z,55.98
2017-05-17T12:43:07.626Z,55.15
2017-05-17T12:44:08.235Z,56.65
2017-05-17T12:45:07.840Z,56.97
2017-05-17T12:46:08.438Z,57.47
2017-05-17T12:47:07.905Z,58.32
2017-05-17T12:48:08.424Z,57.50
2017-05-17T12:49:08.121Z,57.53
2017-05-17T12:50:07.813Z,56.67
2017-05-17T12:51:08.643Z,56.08
2017-05-17T12:52:08.214Z,56.35